sensor_id;sensor_type;location;lat;lon;timestamp;temperature;humidity
42965;DHT22;28604;51.204;22.552;2022-10-31T00:00:06;12.90;86.00
42965;DHT22;28604;51.204;22.552;2022-10-31T00:02:57;12.90;85.30
42965;DHT22;28604;51.204;22.552;2022-10-31T00:05:23;12.80;86.30
42965;DHT22;28604;51.204;22.552;2022-10-31T00:07:52;12.80;86.50
42965;DHT22;28604;51.204;22.552;2022-10-31T00:10:18;12.80;86.00
42965;DHT22;28604;51.204;22.552;2022-10-31T00:12:44;12.70;85.30
42965;DHT22;28604;51.204;22.552;2022-10-31T00:15:10;12.70;85.30
42965;DHT22;28604;51.204;22.552;2022-10-31T00:17:36;12.70;87.60
42965;DHT22;28604;51.204;22.552;2022-10-31T00:20:02;12.70;87.10
42965;DHT22;28604;51.204;22.552;2022-10-31T00:22:28;12.60;86.70
42965;DHT22;28604;51.204;22.552;2022-10-31T00:24:54;12.60;86.50
42965;DHT22;28604;51.204;22.552;2022-10-31T00:27:20;12.60;87.30
42965;DHT22;28604;51.204;22.552;2022-10-31T00:29:45;12.60;87.00
42965;DHT22;28604;51.204;22.552;2022-10-31T00:32:12;12.60;86.60
42965;DHT22;28604;51.204;22.552;2022-10-31T00:34:38;12.60;86.40
42965;DHT22;28604;51.204;22.552;2022-10-31T00:37:04;12.50;86.10
42965;DHT22;28604;51.204;22.552;2022-10-31T00:39:30;12.50;86.70
42965;DHT22;28604;51.204;22.552;2022-10-31T00:41:56;12.50;85.90
42965;DHT22;28604;51.204;22.552;2022-10-31T00:44:21;12.50;86.50
42965;DHT22;28604;51.204;22.552;2022-10-31T00:46:47;12.50;87.20
42965;DHT22;28604;51.204;22.552;2022-10-31T00:49:13;12.40;85.70
42965;DHT22;28604;51.204;22.552;2022-10-31T00:51:39;12.40;85.70
42965;DHT22;28604;51.204;22.552;2022-10-31T00:54:05;12.30;85.10
42965;DHT22;28604;51.204;22.552;2022-10-31T00:56:31;12.30;84.70
42965;DHT22;28604;51.204;22.552;2022-10-31T00:58:59;12.30;84.10
42965;DHT22;28604;51.204;22.552;2022-10-31T01:01:24;12.30;84.10
42965;DHT22;28604;51.204;22.552;2022-10-31T01:03:50;12.30;84.30
42965;DHT22;28604;51.204;22.552;2022-10-31T01:06:16;12.20;84.00
42965;DHT22;28604;51.204;22.552;2022-10-31T01:08:42;12.20;83.60
42965;DHT22;28604;51.204;22.552;2022-10-31T01:11:17;12.20;84.70
42965;DHT22;28604;51.204;22.552;2022-10-31T01:13:44;12.20;85.70
42965;DHT22;28604;51.204;22.552;2022-10-31T01:16:13;12.10;87.20
42965;DHT22;28604;51.204;22.552;2022-10-31T01:18:39;12.10;87.30
42965;DHT22;28604;51.204;22.552;2022-10-31T01:21:14;12.00;87.80
42965;DHT22;28604;51.204;22.552;2022-10-31T01:23:41;12.10;87.80
42965;DHT22;28604;51.204;22.552;2022-10-31T01:26:18;12.10;86.20
42965;DHT22;28604;51.204;22.552;2022-10-31T01:28:46;12.10;85.50
42965;DHT22;28604;51.204;22.552;2022-10-31T01:31:12;12.10;85.90
42965;DHT22;28604;51.204;22.552;2022-10-31T01:33:38;12.10;86.70
42965;DHT22;28604;51.204;22.552;2022-10-31T01:36:19;12.10;87.10
42965;DHT22;28604;51.204;22.552;2022-10-31T01:38:49;12.00;86.80
42965;DHT22;28604;51.204;22.552;2022-10-31T01:41:19;12.00;86.20
42965;DHT22;28604;51.204;22.552;2022-10-31T01:46:36;11.90;87.20
42965;DHT22;28604;51.204;22.552;2022-10-31T01:49:17;11.90;87.20
42965;DHT22;28604;51.204;22.552;2022-10-31T01:51:50;11.90;87.10
42965;DHT22;28604;51.204;22.552;2022-10-31T01:54:19;11.90;87.50
42965;DHT22;28604;51.204;22.552;2022-10-31T01:56:53;11.90;87.10
42965;DHT22;28604;51.204;22.552;2022-10-31T01:59:21;11.90;87.10
42965;DHT22;28604;51.204;22.552;2022-10-31T02:01:50;11.80;86.70
42965;DHT22;28604;51.204;22.552;2022-10-31T02:04:16;11.80;86.50
42965;DHT22;28604;51.204;22.552;2022-10-31T02:06:49;11.80;85.60
42965;DHT22;28604;51.204;22.552;2022-10-31T02:09:19;11.70;85.00
42965;DHT22;28604;51.204;22.552;2022-10-31T02:11:53;11.70;84.40
42965;DHT22;28604;51.204;22.552;2022-10-31T02:14:22;11.70;84.00
42965;DHT22;28604;51.204;22.552;2022-10-31T02:16:51;11.70;83.90
42965;DHT22;28604;51.204;22.552;2022-10-31T02:19:25;11.60;83.60
42965;DHT22;28604;51.204;22.552;2022-10-31T02:22:15;11.60;83.70
42965;DHT22;28604;51.204;22.552;2022-10-31T02:28:05;11.50;84.00
42965;DHT22;28604;51.204;22.552;2022-10-31T02:30:50;11.50;84.10
42965;DHT22;28604;51.204;22.552;2022-10-31T02:33:24;11.40;85.20
42965;DHT22;28604;51.204;22.552;2022-10-31T02:36:23;11.40;85.70
42965;DHT22;28604;51.204;22.552;2022-10-31T02:44:39;11.20;85.60
42965;DHT22;28604;51.204;22.552;2022-10-31T02:47:34;11.20;85.50
42965;DHT22;28604;51.204;22.552;2022-10-31T02:50:16;11.20;85.00
42965;DHT22;28604;51.204;22.552;2022-10-31T02:52:43;11.10;86.00
42965;DHT22;28604;51.204;22.552;2022-10-31T02:58:05;11.10;85.80
42965;DHT22;28604;51.204;22.552;2022-10-31T03:03:55;11.00;85.00
42965;DHT22;28604;51.204;22.552;2022-10-31T03:06:13;11.00;85.90
42965;DHT22;28604;51.204;22.552;2022-10-31T03:09:03;11.00;85.40
42965;DHT22;28604;51.204;22.552;2022-10-31T03:12:00;11.00;85.20
42965;DHT22;28604;51.204;22.552;2022-10-31T03:17:06;11.00;85.20
42965;DHT22;28604;51.204;22.552;2022-10-31T03:19:42;11.00;85.30
42965;DHT22;28604;51.204;22.552;2022-10-31T03:22:17;10.90;86.00
42965;DHT22;28604;51.204;22.552;2022-10-31T03:24:47;10.90;85.70
42965;DHT22;28604;51.204;22.552;2022-10-31T03:27:18;10.90;85.60
42965;DHT22;28604;51.204;22.552;2022-10-31T03:29:47;10.90;86.10
42965;DHT22;28604;51.204;22.552;2022-10-31T03:32:23;10.90;86.80
42965;DHT22;28604;51.204;22.552;2022-10-31T03:34:52;10.90;86.70
42965;DHT22;28604;51.204;22.552;2022-10-31T03:37:20;10.90;87.10
42965;DHT22;28604;51.204;22.552;2022-10-31T03:39:48;10.90;87.10
42965;DHT22;28604;51.204;22.552;2022-10-31T03:42:21;10.80;86.40
42965;DHT22;28604;51.204;22.552;2022-10-31T03:47:34;10.80;86.40
42965;DHT22;28604;51.204;22.552;2022-10-31T03:50:00;10.80;86.40
42965;DHT22;28604;51.204;22.552;2022-10-31T03:52:33;10.70;87.80
42965;DHT22;28604;51.204;22.552;2022-10-31T03:55:39;10.70;86.40
42965;DHT22;28604;51.204;22.552;2022-10-31T03:58:10;10.70;86.20
42965;DHT22;28604;51.204;22.552;2022-10-31T04:00:40;10.70;85.60
42965;DHT22;28604;51.204;22.552;2022-10-31T04:03:24;10.70;85.30
42965;DHT22;28604;51.204;22.552;2022-10-31T04:05:55;10.70;85.40
42965;DHT22;28604;51.204;22.552;2022-10-31T04:08:28;10.70;85.20
42965;DHT22;28604;51.204;22.552;2022-10-31T04:10:57;10.70;85.20
42965;DHT22;28604;51.204;22.552;2022-10-31T04:13:30;10.70;85.30
42965;DHT22;28604;51.204;22.552;2022-10-31T04:16:05;10.70;84.90
42965;DHT22;28604;51.204;22.552;2022-10-31T04:18:32;10.70;84.60
42965;DHT22;28604;51.204;22.552;2022-10-31T04:21:06;10.60;86.90
42965;DHT22;28604;51.204;22.552;2022-10-31T04:23:34;10.60;85.80
42965;DHT22;28604;51.204;22.552;2022-10-31T04:26:10;10.60;84.80
42965;DHT22;28604;51.204;22.552;2022-10-31T04:28:37;10.60;84.60
42965;DHT22;28604;51.204;22.552;2022-10-31T04:31:03;10.60;84.90
42965;DHT22;28604;51.204;22.552;2022-10-31T04:33:30;10.50;85.60
42965;DHT22;28604;51.204;22.552;2022-10-31T04:35:55;10.50;85.20
42965;DHT22;28604;51.204;22.552;2022-10-31T04:38:22;10.50;84.70
42965;DHT22;28604;51.204;22.552;2022-10-31T04:40:49;10.50;84.40
42965;DHT22;28604;51.204;22.552;2022-10-31T04:43:14;10.50;84.10
42965;DHT22;28604;51.204;22.552;2022-10-31T04:45:42;10.40;84.10
42965;DHT22;28604;51.204;22.552;2022-10-31T04:48:09;10.40;86.30
42965;DHT22;28604;51.204;22.552;2022-10-31T04:50:38;10.40;84.80
42965;DHT22;28604;51.204;22.552;2022-10-31T04:53:04;10.40;84.50
42965;DHT22;28604;51.204;22.552;2022-10-31T04:55:37;10.30;85.30
42965;DHT22;28604;51.204;22.552;2022-10-31T04:58:17;10.20;85.60
42965;DHT22;28604;51.204;22.552;2022-10-31T05:00:44;10.20;85.80
42965;DHT22;28604;51.204;22.552;2022-10-31T05:03:09;10.20;85.50
42965;DHT22;28604;51.204;22.552;2022-10-31T05:05:35;10.20;85.00
42965;DHT22;28604;51.204;22.552;2022-10-31T05:08:03;10.20;84.90
42965;DHT22;28604;51.204;22.552;2022-10-31T05:10:30;10.10;84.30
42965;DHT22;28604;51.204;22.552;2022-10-31T05:13:00;10.10;84.00
42965;DHT22;28604;51.204;22.552;2022-10-31T05:15:45;10.10;85.50
42965;DHT22;28604;51.204;22.552;2022-10-31T05:18:17;10.00;85.50
42965;DHT22;28604;51.204;22.552;2022-10-31T05:20:54;10.00;85.60
42965;DHT22;28604;51.204;22.552;2022-10-31T05:23:34;10.00;85.20
42965;DHT22;28604;51.204;22.552;2022-10-31T05:26:00;9.90;85.00
42965;DHT22;28604;51.204;22.552;2022-10-31T05:28:26;10.00;84.70
42965;DHT22;28604;51.204;22.552;2022-10-31T05:30:53;9.90;84.40
42965;DHT22;28604;51.204;22.552;2022-10-31T05:33:20;9.90;84.20
42965;DHT22;28604;51.204;22.552;2022-10-31T05:36:11;9.90;84.20
42965;DHT22;28604;51.204;22.552;2022-10-31T05:38:56;9.90;84.40
42965;DHT22;28604;51.204;22.552;2022-10-31T05:41:28;9.80;84.60
42965;DHT22;28604;51.204;22.552;2022-10-31T05:44:03;9.80;84.40
42965;DHT22;28604;51.204;22.552;2022-10-31T05:46:32;9.80;84.90
42965;DHT22;28604;51.204;22.552;2022-10-31T05:49:32;9.80;85.30
42965;DHT22;28604;51.204;22.552;2022-10-31T05:52:24;9.80;86.50
42965;DHT22;28604;51.204;22.552;2022-10-31T05:54:58;9.90;86.50
42965;DHT22;28604;51.204;22.552;2022-10-31T05:57:24;9.90;86.50
42965;DHT22;28604;51.204;22.552;2022-10-31T05:59:52;9.90;86.00
42965;DHT22;28604;51.204;22.552;2022-10-31T06:02:22;9.90;86.30
42965;DHT22;28604;51.204;22.552;2022-10-31T06:05:14;9.90;87.20
42965;DHT22;28604;51.204;22.552;2022-10-31T06:07:40;9.90;87.00
42965;DHT22;28604;51.204;22.552;2022-10-31T06:10:08;10.10;87.70
42965;DHT22;28604;51.204;22.552;2022-10-31T06:12:35;10.10;87.60
42965;DHT22;28604;51.204;22.552;2022-10-31T06:15:29;10.10;87.50
42965;DHT22;28604;51.204;22.552;2022-10-31T06:18:03;10.10;87.50
42965;DHT22;28604;51.204;22.552;2022-10-31T06:20:34;10.30;87.20
42965;DHT22;28604;51.204;22.552;2022-10-31T06:23:03;10.30;87.30
42965;DHT22;28604;51.204;22.552;2022-10-31T06:25:31;10.30;87.30
42965;DHT22;28604;51.204;22.552;2022-10-31T06:27:58;10.40;87.70
42965;DHT22;28604;51.204;22.552;2022-10-31T06:30:33;10.50;88.20
42965;DHT22;28604;51.204;22.552;2022-10-31T06:33:06;10.60;88.50
42965;DHT22;28604;51.204;22.552;2022-10-31T06:35:35;10.70;89.00
42965;DHT22;28604;51.204;22.552;2022-10-31T06:38:01;10.90;89.70
42965;DHT22;28604;51.204;22.552;2022-10-31T06:40:33;11.00;89.80
42965;DHT22;28604;51.204;22.552;2022-10-31T06:43:15;11.10;90.00
42965;DHT22;28604;51.204;22.552;2022-10-31T06:45:42;11.20;89.10
42965;DHT22;28604;51.204;22.552;2022-10-31T06:48:14;11.30;89.40
42965;DHT22;28604;51.204;22.552;2022-10-31T06:51:00;11.40;89.70
42965;DHT22;28604;51.204;22.552;2022-10-31T06:53:27;11.50;90.00
42965;DHT22;28604;51.204;22.552;2022-10-31T06:55:56;11.60;89.20
42965;DHT22;28604;51.204;22.552;2022-10-31T06:58:30;11.70;88.40
42965;DHT22;28604;51.204;22.552;2022-10-31T07:01:00;11.80;89.10
42965;DHT22;28604;51.204;22.552;2022-10-31T07:03:26;11.90;88.80
42965;DHT22;28604;51.204;22.552;2022-10-31T07:05:55;12.00;88.60
42965;DHT22;28604;51.204;22.552;2022-10-31T07:08:22;12.00;88.80
42965;DHT22;28604;51.204;22.552;2022-10-31T07:10:57;12.20;88.60
42965;DHT22;28604;51.204;22.552;2022-10-31T07:13:24;12.30;88.20
42965;DHT22;28604;51.204;22.552;2022-10-31T07:15:59;12.40;87.80
42965;DHT22;28604;51.204;22.552;2022-10-31T07:18:26;12.50;88.30
42965;DHT22;28604;51.204;22.552;2022-10-31T07:20:53;12.60;88.00
42965;DHT22;28604;51.204;22.552;2022-10-31T07:23:20;12.60;88.00
42965;DHT22;28604;51.204;22.552;2022-10-31T07:26:03;12.70;87.80
42965;DHT22;28604;51.204;22.552;2022-10-31T07:28:39;12.80;88.00
42965;DHT22;28604;51.204;22.552;2022-10-31T07:31:06;13.10;87.60
42965;DHT22;28604;51.204;22.552;2022-10-31T07:33:32;13.00;87.60
42965;DHT22;28604;51.204;22.552;2022-10-31T07:36:18;13.20;87.40
42965;DHT22;28604;51.204;22.552;2022-10-31T07:38:45;13.40;87.00
42965;DHT22;28604;51.204;22.552;2022-10-31T07:41:13;13.40;86.50
42965;DHT22;28604;51.204;22.552;2022-10-31T07:43:43;13.50;86.50
42965;DHT22;28604;51.204;22.552;2022-10-31T07:46:29;13.60;85.80
42965;DHT22;28604;51.204;22.552;2022-10-31T07:49:13;13.70;85.90
42965;DHT22;28604;51.204;22.552;2022-10-31T07:51:57;13.80;85.10
42965;DHT22;28604;51.204;22.552;2022-10-31T07:54:38;13.90;85.60
42965;DHT22;28604;51.204;22.552;2022-10-31T07:57:08;14.10;85.80
42965;DHT22;28604;51.204;22.552;2022-10-31T07:59:34;14.40;85.80
42965;DHT22;28604;51.204;22.552;2022-10-31T08:02:00;14.50;85.00
42965;DHT22;28604;51.204;22.552;2022-10-31T08:04:34;14.80;84.30
42965;DHT22;28604;51.204;22.552;2022-10-31T08:07:19;14.90;84.00
42965;DHT22;28604;51.204;22.552;2022-10-31T08:09:53;15.00;82.90
42965;DHT22;28604;51.204;22.552;2022-10-31T08:12:23;15.20;82.40
42965;DHT22;28604;51.204;22.552;2022-10-31T08:14:49;15.30;82.50
42965;DHT22;28604;51.204;22.552;2022-10-31T08:17:18;15.50;82.00
42965;DHT22;28604;51.204;22.552;2022-10-31T08:19:53;15.50;82.00
42965;DHT22;28604;51.204;22.552;2022-10-31T08:22:23;15.60;81.80
42965;DHT22;28604;51.204;22.552;2022-10-31T08:24:49;15.70;81.50
42965;DHT22;28604;51.204;22.552;2022-10-31T08:27:15;15.70;81.10
42965;DHT22;28604;51.204;22.552;2022-10-31T08:29:41;15.60;81.10
42965;DHT22;28604;51.204;22.552;2022-10-31T08:32:07;15.70;81.10
42965;DHT22;28604;51.204;22.552;2022-10-31T08:34:51;15.70;81.30
42965;DHT22;28604;51.204;22.552;2022-10-31T08:37:36;15.70;81.50
42965;DHT22;28604;51.204;22.552;2022-10-31T08:40:03;15.70;81.70
42965;DHT22;28604;51.204;22.552;2022-10-31T08:42:34;15.70;82.00
42965;DHT22;28604;51.204;22.552;2022-10-31T08:45:00;15.80;82.00
42965;DHT22;28604;51.204;22.552;2022-10-31T08:47:27;15.70;81.90
42965;DHT22;28604;51.204;22.552;2022-10-31T08:49:54;15.80;82.00
42965;DHT22;28604;51.204;22.552;2022-10-31T08:52:23;15.80;82.00
42965;DHT22;28604;51.204;22.552;2022-10-31T08:54:51;15.80;82.00
42965;DHT22;28604;51.204;22.552;2022-10-31T08:57:40;15.90;81.90
42965;DHT22;28604;51.204;22.552;2022-10-31T09:00:07;15.90;82.00
42965;DHT22;28604;51.204;22.552;2022-10-31T09:02:59;15.90;82.10
42965;DHT22;28604;51.204;22.552;2022-10-31T09:05:29;15.90;81.90
42965;DHT22;28604;51.204;22.552;2022-10-31T09:07:57;15.90;82.10
42965;DHT22;28604;51.204;22.552;2022-10-31T09:10:25;16.00;82.00
42965;DHT22;28604;51.204;22.552;2022-10-31T09:13:10;16.00;82.20
42965;DHT22;28604;51.204;22.552;2022-10-31T09:15:56;16.10;82.40
42965;DHT22;28604;51.204;22.552;2022-10-31T09:18:24;16.10;82.10
42965;DHT22;28604;51.204;22.552;2022-10-31T09:20:59;16.10;82.00
42965;DHT22;28604;51.204;22.552;2022-10-31T09:23:27;16.10;82.00
42965;DHT22;28604;51.204;22.552;2022-10-31T09:25:54;16.10;82.20
42965;DHT22;28604;51.204;22.552;2022-10-31T09:28:35;16.10;82.00
42965;DHT22;28604;51.204;22.552;2022-10-31T09:31:07;16.20;82.30
42965;DHT22;28604;51.204;22.552;2022-10-31T09:33:49;16.20;82.40
42965;DHT22;28604;51.204;22.552;2022-10-31T09:36:36;16.20;82.50
42965;DHT22;28604;51.204;22.552;2022-10-31T09:39:03;16.20;82.60
42965;DHT22;28604;51.204;22.552;2022-10-31T09:41:51;16.10;82.70
42965;DHT22;28604;51.204;22.552;2022-10-31T09:44:33;16.20;82.90
42965;DHT22;28604;51.204;22.552;2022-10-31T09:47:26;16.30;82.90
42965;DHT22;28604;51.204;22.552;2022-10-31T09:50:24;16.40;83.10
42965;DHT22;28604;51.204;22.552;2022-10-31T09:53:22;16.50;83.10
42965;DHT22;28604;51.204;22.552;2022-10-31T09:55:45;16.60;83.30
42965;DHT22;28604;51.204;22.552;2022-10-31T09:58:32;16.80;83.00
42965;DHT22;28604;51.204;22.552;2022-10-31T10:01:01;17.00;82.30
42965;DHT22;28604;51.204;22.552;2022-10-31T10:03:35;17.10;82.10
42965;DHT22;28604;51.204;22.552;2022-10-31T10:06:28;17.20;81.80
42965;DHT22;28604;51.204;22.552;2022-10-31T10:09:26;17.50;82.10
42965;DHT22;28604;51.204;22.552;2022-10-31T10:18:05;18.30;81.00
42965;DHT22;28604;51.204;22.552;2022-10-31T10:21:03;18.50;79.70
42965;DHT22;28604;51.204;22.552;2022-10-31T10:26:19;19.00;78.80
42965;DHT22;28604;51.204;22.552;2022-10-31T10:28:49;19.30;79.50
42965;DHT22;28604;51.204;22.552;2022-10-31T10:31:21;19.60;78.00
42965;DHT22;28604;51.204;22.552;2022-10-31T10:33:58;19.80;77.80
42965;DHT22;28604;51.204;22.552;2022-10-31T10:36:27;20.00;78.00
42965;DHT22;28604;51.204;22.552;2022-10-31T10:38:58;20.20;76.30
42965;DHT22;28604;51.204;22.552;2022-10-31T10:41:30;20.40;76.90
42965;DHT22;28604;51.204;22.552;2022-10-31T10:43:57;20.70;77.60
42965;DHT22;28604;51.204;22.552;2022-10-31T10:46:29;20.80;74.60
42965;DHT22;28604;51.204;22.552;2022-10-31T10:59:55;21.90;74.00
42965;DHT22;28604;51.204;22.552;2022-10-31T11:02:26;22.10;71.20
42965;DHT22;28604;51.204;22.552;2022-10-31T11:04:55;22.30;67.90
42965;DHT22;28604;51.204;22.552;2022-10-31T11:07:23;22.30;67.70
42965;DHT22;28604;51.204;22.552;2022-10-31T11:09:49;22.30;68.90
42965;DHT22;28604;51.204;22.552;2022-10-31T11:12:29;22.40;69.70
42965;DHT22;28604;51.204;22.552;2022-10-31T11:14:58;22.60;68.90
42965;DHT22;28604;51.204;22.552;2022-10-31T11:17:35;22.60;70.30
42965;DHT22;28604;51.204;22.552;2022-10-31T11:20:05;22.80;68.80
42965;DHT22;28604;51.204;22.552;2022-10-31T11:22:32;22.90;68.70
42965;DHT22;28604;51.204;22.552;2022-10-31T11:24:57;22.90;66.90
42965;DHT22;28604;51.204;22.552;2022-10-31T11:27:25;23.00;65.70
42965;DHT22;28604;51.204;22.552;2022-10-31T11:29:51;23.00;64.90
42965;DHT22;28604;51.204;22.552;2022-10-31T11:32:22;23.00;65.60
42965;DHT22;28604;51.204;22.552;2022-10-31T11:35:00;22.90;63.30
42965;DHT22;28604;51.204;22.552;2022-10-31T11:37:33;23.00;66.00
42965;DHT22;28604;51.204;22.552;2022-10-31T11:40:04;22.70;64.90
42965;DHT22;28604;51.204;22.552;2022-10-31T11:42:39;22.70;63.20
42965;DHT22;28604;51.204;22.552;2022-10-31T11:45:17;22.90;64.30
42965;DHT22;28604;51.204;22.552;2022-10-31T11:47:49;22.80;64.70
42965;DHT22;28604;51.204;22.552;2022-10-31T11:50:23;22.70;66.00
42965;DHT22;28604;51.204;22.552;2022-10-31T11:52:51;22.60;66.60
42965;DHT22;28604;51.204;22.552;2022-10-31T11:55:37;22.20;66.00
42965;DHT22;28604;51.204;22.552;2022-10-31T11:58:17;22.10;67.70
42965;DHT22;28604;51.204;22.552;2022-10-31T12:00:49;22.30;68.10
42965;DHT22;28604;51.204;22.552;2022-10-31T12:08:17;22.50;65.80
42965;DHT22;28604;51.204;22.552;2022-10-31T12:11:01;22.70;67.10
42965;DHT22;28604;51.204;22.552;2022-10-31T12:19:14;22.70;68.30
42965;DHT22;28604;51.204;22.552;2022-10-31T12:21:46;22.80;66.60
42965;DHT22;28604;51.204;22.552;2022-10-31T12:24:31;22.40;66.60
42965;DHT22;28604;51.204;22.552;2022-10-31T12:30:01;22.00;68.60
42965;DHT22;28604;51.204;22.552;2022-10-31T12:41:23;21.60;69.20
42965;DHT22;28604;51.204;22.552;2022-10-31T12:44:09;21.70;68.70
42965;DHT22;28604;51.204;22.552;2022-10-31T12:58:09;21.60;69.60
42965;DHT22;28604;51.204;22.552;2022-10-31T13:00:42;21.70;69.60
42965;DHT22;28604;51.204;22.552;2022-10-31T13:03:28;21.60;69.00
42965;DHT22;28604;51.204;22.552;2022-10-31T13:06:05;21.60;68.80
42965;DHT22;28604;51.204;22.552;2022-10-31T13:08:43;21.40;68.50
42965;DHT22;28604;51.204;22.552;2022-10-31T13:11:32;21.50;68.90
42965;DHT22;28604;51.204;22.552;2022-10-31T13:16:41;21.30;68.90
42965;DHT22;28604;51.204;22.552;2022-10-31T13:19:30;21.30;69.70
42965;DHT22;28604;51.204;22.552;2022-10-31T13:22:03;21.40;69.70
42965;DHT22;28604;51.204;22.552;2022-10-31T13:24:41;21.50;69.90
42965;DHT22;28604;51.204;22.552;2022-10-31T13:27:43;21.50;69.10
42965;DHT22;28604;51.204;22.552;2022-10-31T13:30:18;21.60;70.90
42965;DHT22;28604;51.204;22.552;2022-10-31T13:33:02;21.60;70.10
42965;DHT22;28604;51.204;22.552;2022-10-31T13:35:41;21.50;69.50
42965;DHT22;28604;51.204;22.552;2022-10-31T13:44:01;21.30;70.10
42965;DHT22;28604;51.204;22.552;2022-10-31T13:46:36;21.40;69.90
42965;DHT22;28604;51.204;22.552;2022-10-31T13:49:03;21.30;70.00
42965;DHT22;28604;51.204;22.552;2022-10-31T13:51:32;21.30;70.10
42965;DHT22;28604;51.204;22.552;2022-10-31T13:54:05;21.30;70.20
42965;DHT22;28604;51.204;22.552;2022-10-31T13:56:33;21.10;70.30
42965;DHT22;28604;51.204;22.552;2022-10-31T14:01:35;21.10;70.90
42965;DHT22;28604;51.204;22.552;2022-10-31T14:04:15;21.00;70.70
42965;DHT22;28604;51.204;22.552;2022-10-31T14:06:52;20.90;70.50
42965;DHT22;28604;51.204;22.552;2022-10-31T14:09:59;20.90;71.00
42965;DHT22;28604;51.204;22.552;2022-10-31T14:12:38;20.80;70.90
42965;DHT22;28604;51.204;22.552;2022-10-31T14:15:17;20.70;71.30
42965;DHT22;28604;51.204;22.552;2022-10-31T14:17:51;20.50;71.50
42965;DHT22;28604;51.204;22.552;2022-10-31T14:22:44;20.30;71.80
42965;DHT22;28604;51.204;22.552;2022-10-31T14:28:30;20.10;71.90
42965;DHT22;28604;51.204;22.552;2022-10-31T14:30:58;20.00;71.90
42965;DHT22;28604;51.204;22.552;2022-10-31T14:33:27;19.90;72.10
42965;DHT22;28604;51.204;22.552;2022-10-31T14:36:10;19.80;72.40
42965;DHT22;28604;51.204;22.552;2022-10-31T14:41:15;19.50;73.00
42965;DHT22;28604;51.204;22.552;2022-10-31T14:52:21;18.90;74.10
42965;DHT22;28604;51.204;22.552;2022-10-31T14:54:54;18.60;75.20
42965;DHT22;28604;51.204;22.552;2022-10-31T14:57:27;18.40;75.70
42965;DHT22;28604;51.204;22.552;2022-10-31T15:00:04;18.50;75.00
42965;DHT22;28604;51.204;22.552;2022-10-31T15:02:34;18.50;74.60
42965;DHT22;28604;51.204;22.552;2022-10-31T15:05:09;18.40;74.70
42965;DHT22;28604;51.204;22.552;2022-10-31T15:07:36;18.30;75.00
42965;DHT22;28604;51.204;22.552;2022-10-31T15:13:17;18.20;75.00
42965;DHT22;28604;51.204;22.552;2022-10-31T15:15:45;18.00;75.10
42965;DHT22;28604;51.204;22.552;2022-10-31T15:18:25;17.90;76.10
42965;DHT22;28604;51.204;22.552;2022-10-31T15:20:53;17.90;75.40
42965;DHT22;28604;51.204;22.552;2022-10-31T15:23:24;17.90;75.80
42965;DHT22;28604;51.204;22.552;2022-10-31T15:25:58;17.70;76.90
42965;DHT22;28604;51.204;22.552;2022-10-31T15:28:27;17.70;77.40
42965;DHT22;28604;51.204;22.552;2022-10-31T15:30:57;17.60;77.00
42965;DHT22;28604;51.204;22.552;2022-10-31T15:33:40;17.50;77.50
42965;DHT22;28604;51.204;22.552;2022-10-31T15:36:22;17.40;77.50
42965;DHT22;28604;51.204;22.552;2022-10-31T15:38:49;17.40;77.50
42965;DHT22;28604;51.204;22.552;2022-10-31T15:41:38;17.20;77.40
42965;DHT22;28604;51.204;22.552;2022-10-31T15:44:16;17.10;79.00
42965;DHT22;28604;51.204;22.552;2022-10-31T15:46:53;17.00;77.90
42965;DHT22;28604;51.204;22.552;2022-10-31T15:49:36;16.90;77.90
42965;DHT22;28604;51.204;22.552;2022-10-31T15:52:50;16.80;78.00
42965;DHT22;28604;51.204;22.552;2022-10-31T15:54:53;16.60;77.80
42965;DHT22;28604;51.204;22.552;2022-10-31T15:57:22;16.60;78.80
42965;DHT22;28604;51.204;22.552;2022-10-31T15:59:49;16.60;78.50
42965;DHT22;28604;51.204;22.552;2022-10-31T16:02:23;16.40;80.10
42965;DHT22;28604;51.204;22.552;2022-10-31T16:04:58;16.40;80.50
42965;DHT22;28604;51.204;22.552;2022-10-31T16:07:25;16.30;79.60
42965;DHT22;28604;51.204;22.552;2022-10-31T16:10:03;16.20;80.30
42965;DHT22;28604;51.204;22.552;2022-10-31T16:12:45;16.10;79.60
42965;DHT22;28604;51.204;22.552;2022-10-31T16:15:14;16.00;81.60
42965;DHT22;28604;51.204;22.552;2022-10-31T16:17:43;15.90;81.70
42965;DHT22;28604;51.204;22.552;2022-10-31T16:20:23;15.90;80.70
42965;DHT22;28604;51.204;22.552;2022-10-31T16:22:52;15.80;81.00
42965;DHT22;28604;51.204;22.552;2022-10-31T16:25:36;15.70;82.20
42965;DHT22;28604;51.204;22.552;2022-10-31T16:28:05;15.60;83.10
42965;DHT22;28604;51.204;22.552;2022-10-31T16:30:38;15.30;85.00
42965;DHT22;28604;51.204;22.552;2022-10-31T16:33:21;15.30;83.90
42965;DHT22;28604;51.204;22.552;2022-10-31T16:35:48;15.30;82.80
42965;DHT22;28604;51.204;22.552;2022-10-31T16:38:14;15.30;81.60
42965;DHT22;28604;51.204;22.552;2022-10-31T16:40:40;15.30;83.60
42965;DHT22;28604;51.204;22.552;2022-10-31T16:43:16;15.10;85.90
42965;DHT22;28604;51.204;22.552;2022-10-31T16:45:45;14.90;87.20
42965;DHT22;28604;51.204;22.552;2022-10-31T16:48:14;14.70;87.60
42965;DHT22;28604;51.204;22.552;2022-10-31T16:50:43;14.80;86.70
42965;DHT22;28604;51.204;22.552;2022-10-31T16:53:10;14.80;85.10
42965;DHT22;28604;51.204;22.552;2022-10-31T16:58:32;14.70;86.00
42965;DHT22;28604;51.204;22.552;2022-10-31T17:01:04;14.70;85.90
42965;DHT22;28604;51.204;22.552;2022-10-31T17:03:31;14.80;83.80
42965;DHT22;28604;51.204;22.552;2022-10-31T17:05:57;14.80;84.30
42965;DHT22;28604;51.204;22.552;2022-10-31T17:08:23;14.80;84.00
42965;DHT22;28604;51.204;22.552;2022-10-31T17:10:54;14.70;84.30
42965;DHT22;28604;51.204;22.552;2022-10-31T17:13:29;14.70;83.70
42965;DHT22;28604;51.204;22.552;2022-10-31T17:15:59;14.60;87.00
42965;DHT22;28604;51.204;22.552;2022-10-31T17:18:25;14.40;87.60
42965;DHT22;28604;51.204;22.552;2022-10-31T17:20:56;14.40;88.50
42965;DHT22;28604;51.204;22.552;2022-10-31T17:23:24;14.20;88.50
42965;DHT22;28604;51.204;22.552;2022-10-31T17:25:50;14.10;89.20
42965;DHT22;28604;51.204;22.552;2022-10-31T17:28:16;13.90;89.30
42965;DHT22;28604;51.204;22.552;2022-10-31T17:30:42;13.80;89.60
42965;DHT22;28604;51.204;22.552;2022-10-31T17:33:13;14.00;88.90
42965;DHT22;28604;51.204;22.552;2022-10-31T17:35:40;13.80;88.90
42965;DHT22;28604;51.204;22.552;2022-10-31T17:38:07;13.90;87.20
42965;DHT22;28604;51.204;22.552;2022-10-31T17:40:33;14.00;86.00
42965;DHT22;28604;51.204;22.552;2022-10-31T17:43:01;14.00;86.10